sensor_id;sensor_type;location;lat;lon;timestamp;P1;durP1;ratioP1;P2;durP2;ratioP2
35530;SDS011;21637;53.352;-6.356;2024-01-27T00:00:26;15.63;;;5.22;;
35530;SDS011;21637;53.352;-6.356;2024-01-27T00:02:52;11.73;;;3.65;;
35530;SDS011;21637;53.352;-6.356;2024-01-27T00:05:17;10.32;;;2.00;;
35530;SDS011;21637;53.352;-6.356;2024-01-27T00:07:43;6.78;;;1.60;;
35530;SDS011;21637;53.352;-6.356;2024-01-27T00:10:09;11.15;;;2.05;;
35530;SDS011;21637;53.352;-6.356;2024-01-27T00:12:34;9.02;;;2.30;;
35530;SDS011;21637;53.352;-6.356;2024-01-27T00:15:01;14.32;;;1.75;;
35530;SDS011;21637;53.352;-6.356;2024-01-27T00:17:27;14.45;;;2.60;;
35530;SDS011;21637;53.352;-6.356;2024-01-27T00:19:53;7.88;;;2.25;;
35530;SDS011;21637;53.352;-6.356;2024-01-27T00:22:19;7.90;;;2.42;;
35530;SDS011;21637;53.352;-6.356;2024-01-27T00:24:48;8.93;;;1.85;;
35530;SDS011;21637;53.352;-6.356;2024-01-27T00:27:14;11.32;;;2.30;;
35530;SDS011;21637;53.352;-6.356;2024-01-27T00:29:39;10.35;;;2.03;;
35530;SDS011;21637;53.352;-6.356;2024-01-27T00:32:05;9.13;;;1.70;;
35530;SDS011;21637;53.352;-6.356;2024-01-27T00:34:31;9.75;;;2.30;;
35530;SDS011;21637;53.352;-6.356;2024-01-27T00:36:56;13.68;;;2.58;;
35530;SDS011;21637;53.352;-6.356;2024-01-27T00:39:22;13.23;;;2.45;;
35530;SDS011;21637;53.352;-6.356;2024-01-27T00:41:48;9.85;;;2.08;;
35530;SDS011;21637;53.352;-6.356;2024-01-27T00:44:14;11.40;;;2.38;;
35530;SDS011;21637;53.352;-6.356;2024-01-27T00:46:40;13.20;;;1.58;;
35530;SDS011;21637;53.352;-6.356;2024-01-27T00:49:06;10.82;;;2.20;;
35530;SDS011;21637;53.352;-6.356;2024-01-27T00:51:32;8.98;;;1.77;;
35530;SDS011;21637;53.352;-6.356;2024-01-27T00:53:58;10.57;;;1.63;;
35530;SDS011;21637;53.352;-6.356;2024-01-27T00:56:24;8.80;;;1.70;;
35530;SDS011;21637;53.352;-6.356;2024-01-27T00:58:49;7.50;;;1.65;;
35530;SDS011;21637;53.352;-6.356;2024-01-27T01:01:15;11.55;;;1.70;;
35530;SDS011;21637;53.352;-6.356;2024-01-27T01:03:41;15.95;;;2.10;;
35530;SDS011;21637;53.352;-6.356;2024-01-27T01:06:06;5.35;;;1.33;;
35530;SDS011;21637;53.352;-6.356;2024-01-27T01:08:32;9.73;;;1.50;;
35530;SDS011;21637;53.352;-6.356;2024-01-27T01:10:58;6.85;;;1.58;;
35530;SDS011;21637;53.352;-6.356;2024-01-27T01:13:23;10.73;;;1.58;;
35530;SDS011;21637;53.352;-6.356;2024-01-27T01:15:49;12.75;;;1.85;;
35530;SDS011;21637;53.352;-6.356;2024-01-27T01:18:15;6.53;;;1.23;;
35530;SDS011;21637;53.352;-6.356;2024-01-27T01:20:41;10.35;;;1.73;;
35530;SDS011;21637;53.352;-6.356;2024-01-27T01:23:07;11.07;;;2.20;;
35530;SDS011;21637;53.352;-6.356;2024-01-27T01:25:33;10.90;;;1.55;;
35530;SDS011;21637;53.352;-6.356;2024-01-27T01:27:59;3.40;;;1.20;;
35530;SDS011;21637;53.352;-6.356;2024-01-27T01:30:24;11.13;;;1.52;;
35530;SDS011;21637;53.352;-6.356;2024-01-27T01:32:50;6.95;;;1.40;;
35530;SDS011;21637;53.352;-6.356;2024-01-27T01:35:17;6.05;;;1.15;;
35530;SDS011;21637;53.352;-6.356;2024-01-27T01:37:42;9.80;;;1.35;;
35530;SDS011;21637;53.352;-6.356;2024-01-27T01:40:08;4.47;;;0.93;;
35530;SDS011;21637;53.352;-6.356;2024-01-27T01:42:34;7.47;;;1.55;;
35530;SDS011;21637;53.352;-6.356;2024-01-27T01:45:00;4.35;;;1.25;;
35530;SDS011;21637;53.352;-6.356;2024-01-27T01:47:26;7.05;;;1.52;;
35530;SDS011;21637;53.352;-6.356;2024-01-27T01:49:52;5.78;;;1.25;;
35530;SDS011;21637;53.352;-6.356;2024-01-27T01:52:18;6.13;;;1.73;;
35530;SDS011;21637;53.352;-6.356;2024-01-27T01:54:49;7.55;;;1.50;;
35530;SDS011;21637;53.352;-6.356;2024-01-27T01:57:18;6.55;;;1.23;;
35530;SDS011;21637;53.352;-6.356;2024-01-27T01:59:43;7.53;;;1.50;;
35530;SDS011;21637;53.352;-6.356;2024-01-27T02:02:09;9.70;;;1.33;;
35530;SDS011;21637;53.352;-6.356;2024-01-27T02:04:45;7.25;;;1.33;;
35530;SDS011;21637;53.352;-6.356;2024-01-27T02:07:11;6.75;;;1.45;;
35530;SDS011;21637;53.352;-6.356;2024-01-27T02:09:37;8.50;;;1.33;;
35530;SDS011;21637;53.352;-6.356;2024-01-27T02:12:04;8.02;;;1.52;;
35530;SDS011;21637;53.352;-6.356;2024-01-27T02:14:30;9.70;;;1.48;;
35530;SDS011;21637;53.352;-6.356;2024-01-27T02:16:56;7.47;;;1.08;;
35530;SDS011;21637;53.352;-6.356;2024-01-27T02:19:22;8.43;;;1.52;;
35530;SDS011;21637;53.352;-6.356;2024-01-27T02:21:48;8.15;;;1.50;;
35530;SDS011;21637;53.352;-6.356;2024-01-27T02:24:14;7.00;;;1.15;;
35530;SDS011;21637;53.352;-6.356;2024-01-27T02:26:40;3.65;;;1.15;;
35530;SDS011;21637;53.352;-6.356;2024-01-27T02:29:06;12.65;;;1.83;;
35530;SDS011;21637;53.352;-6.356;2024-01-27T02:31:31;7.18;;;2.15;;
35530;SDS011;21637;53.352;-6.356;2024-01-27T02:33:57;8.68;;;1.23;;
35530;SDS011;21637;53.352;-6.356;2024-01-27T02:36:23;9.27;;;1.67;;
35530;SDS011;21637;53.352;-6.356;2024-01-27T02:38:48;7.47;;;1.27;;
35530;SDS011;21637;53.352;-6.356;2024-01-27T02:41:14;8.90;;;1.48;;
35530;SDS011;21637;53.352;-6.356;2024-01-27T02:43:40;5.20;;;1.20;;
35530;SDS011;21637;53.352;-6.356;2024-01-27T02:46:09;4.05;;;0.90;;
35530;SDS011;21637;53.352;-6.356;2024-01-27T02:48:39;11.95;;;1.33;;
35530;SDS011;21637;53.352;-6.356;2024-01-27T02:51:06;6.47;;;1.10;;
35530;SDS011;21637;53.352;-6.356;2024-01-27T02:53:32;10.65;;;1.38;;
35530;SDS011;21637;53.352;-6.356;2024-01-27T02:55:58;8.88;;;1.42;;
35530;SDS011;21637;53.352;-6.356;2024-01-27T02:58:23;10.73;;;1.35;;
35530;SDS011;21637;53.352;-6.356;2024-01-27T03:00:49;6.90;;;0.95;;
35530;SDS011;21637;53.352;-6.356;2024-01-27T03:03:15;4.43;;;1.23;;
35530;SDS011;21637;53.352;-6.356;2024-01-27T03:05:41;6.43;;;1.13;;
35530;SDS011;21637;53.352;-6.356;2024-01-27T03:08:06;13.73;;;1.58;;
35530;SDS011;21637;53.352;-6.356;2024-01-27T03:10:32;7.03;;;1.20;;
35530;SDS011;21637;53.352;-6.356;2024-01-27T03:12:58;6.10;;;1.17;;
35530;SDS011;21637;53.352;-6.356;2024-01-27T03:15:24;6.50;;;1.27;;
35530;SDS011;21637;53.352;-6.356;2024-01-27T03:17:50;5.60;;;1.23;;
35530;SDS011;21637;53.352;-6.356;2024-01-27T03:20:16;6.82;;;1.30;;
35530;SDS011;21637;53.352;-6.356;2024-01-27T03:22:41;9.70;;;1.60;;
35530;SDS011;21637;53.352;-6.356;2024-01-27T03:25:08;6.45;;;1.20;;
35530;SDS011;21637;53.352;-6.356;2024-01-27T03:27:35;10.82;;;1.20;;
35530;SDS011;21637;53.352;-6.356;2024-01-27T03:30:01;15.20;;;1.90;;
35530;SDS011;21637;53.352;-6.356;2024-01-27T03:32:28;11.73;;;1.35;;
35530;SDS011;21637;53.352;-6.356;2024-01-27T03:34:57;6.00;;;1.30;;
35530;SDS011;21637;53.352;-6.356;2024-01-27T03:37:23;8.50;;;1.60;;
35530;SDS011;21637;53.352;-6.356;2024-01-27T03:39:49;6.30;;;1.40;;
35530;SDS011;21637;53.352;-6.356;2024-01-27T03:42:15;12.63;;;1.58;;
35530;SDS011;21637;53.352;-6.356;2024-01-27T03:44:41;5.50;;;1.55;;
35530;SDS011;21637;53.352;-6.356;2024-01-27T03:47:06;7.53;;;1.23;;
35530;SDS011;21637;53.352;-6.356;2024-01-27T03:49:32;10.23;;;1.38;;
35530;SDS011;21637;53.352;-6.356;2024-01-27T03:51:58;6.57;;;0.85;;
35530;SDS011;21637;53.352;-6.356;2024-01-27T03:54:23;2.70;;;0.70;;
35530;SDS011;21637;53.352;-6.356;2024-01-27T03:56:49;5.45;;;1.00;;
35530;SDS011;21637;53.352;-6.356;2024-01-27T03:59:15;8.32;;;1.13;;
35530;SDS011;21637;53.352;-6.356;2024-01-27T04:01:40;9.05;;;1.23;;
35530;SDS011;21637;53.352;-6.356;2024-01-27T04:04:06;4.85;;;1.05;;
35530;SDS011;21637;53.352;-6.356;2024-01-27T04:06:41;8.20;;;0.80;;
35530;SDS011;21637;53.352;-6.356;2024-01-27T04:09:07;6.07;;;1.00;;
35530;SDS011;21637;53.352;-6.356;2024-01-27T04:11:36;4.30;;;0.80;;
35530;SDS011;21637;53.352;-6.356;2024-01-27T04:14:03;5.97;;;1.67;;
35530;SDS011;21637;53.352;-6.356;2024-01-27T04:16:30;6.35;;;1.05;;
35530;SDS011;21637;53.352;-6.356;2024-01-27T04:18:56;6.78;;;0.80;;
35530;SDS011;21637;53.352;-6.356;2024-01-27T04:21:21;5.07;;;1.10;;
35530;SDS011;21637;53.352;-6.356;2024-01-27T04:23:47;3.78;;;0.80;;
35530;SDS011;21637;53.352;-6.356;2024-01-27T04:26:13;3.22;;;1.17;;
35530;SDS011;21637;53.352;-6.356;2024-01-27T04:28:39;4.72;;;1.10;;
35530;SDS011;21637;53.352;-6.356;2024-01-27T04:31:05;4.85;;;0.70;;
35530;SDS011;21637;53.352;-6.356;2024-01-27T04:33:31;3.05;;;0.75;;
35530;SDS011;21637;53.352;-6.356;2024-01-27T04:35:57;4.18;;;0.90;;
35530;SDS011;21637;53.352;-6.356;2024-01-27T04:38:23;5.45;;;0.80;;
35530;SDS011;21637;53.352;-6.356;2024-01-27T04:40:49;6.78;;;1.25;;
35530;SDS011;21637;53.352;-6.356;2024-01-27T04:43:16;3.72;;;0.80;;
35530;SDS011;21637;53.352;-6.356;2024-01-27T04:45:43;7.00;;;1.23;;
35530;SDS011;21637;53.352;-6.356;2024-01-27T04:48:09;9.52;;;1.50;;
35530;SDS011;21637;53.352;-6.356;2024-01-27T04:50:35;7.05;;;1.50;;
35530;SDS011;21637;53.352;-6.356;2024-01-27T04:53:01;3.85;;;0.88;;
35530;SDS011;21637;53.352;-6.356;2024-01-27T04:55:27;6.95;;;0.70;;
35530;SDS011;21637;53.352;-6.356;2024-01-27T04:57:53;3.92;;;0.90;;
35530;SDS011;21637;53.352;-6.356;2024-01-27T05:00:19;5.38;;;1.75;;
35530;SDS011;21637;53.352;-6.356;2024-01-27T05:02:45;2.17;;;0.73;;
35530;SDS011;21637;53.352;-6.356;2024-01-27T05:05:11;6.75;;;1.13;;
35530;SDS011;21637;53.352;-6.356;2024-01-27T05:07:40;5.38;;;1.00;;
35530;SDS011;21637;53.352;-6.356;2024-01-27T05:10:06;5.25;;;1.02;;
35530;SDS011;21637;53.352;-6.356;2024-01-27T05:12:35;4.72;;;0.90;;
35530;SDS011;21637;53.352;-6.356;2024-01-27T05:15:00;7.13;;;1.20;;
35530;SDS011;21637;53.352;-6.356;2024-01-27T05:17:26;7.90;;;1.27;;
35530;SDS011;21637;53.352;-6.356;2024-01-27T05:19:52;6.90;;;1.05;;
35530;SDS011;21637;53.352;-6.356;2024-01-27T05:22:18;10.18;;;1.55;;
35530;SDS011;21637;53.352;-6.356;2024-01-27T05:24:43;9.32;;;1.15;;
35530;SDS011;21637;53.352;-6.356;2024-01-27T05:27:09;5.82;;;1.52;;
35530;SDS011;21637;53.352;-6.356;2024-01-27T05:29:36;5.85;;;1.35;;
35530;SDS011;21637;53.352;-6.356;2024-01-27T05:32:02;5.30;;;1.27;;
35530;SDS011;21637;53.352;-6.356;2024-01-27T05:34:28;7.30;;;1.35;;
35530;SDS011;21637;53.352;-6.356;2024-01-27T05:36:54;7.25;;;1.25;;
35530;SDS011;21637;53.352;-6.356;2024-01-27T05:39:20;9.48;;;1.65;;
35530;SDS011;21637;53.352;-6.356;2024-01-27T05:41:46;9.77;;;1.40;;
35530;SDS011;21637;53.352;-6.356;2024-01-27T05:44:11;6.65;;;1.38;;
35530;SDS011;21637;53.352;-6.356;2024-01-27T05:46:37;7.22;;;1.48;;
35530;SDS011;21637;53.352;-6.356;2024-01-27T05:49:03;13.65;;;1.40;;
35530;SDS011;21637;53.352;-6.356;2024-01-27T05:51:28;7.18;;;1.30;;
35530;SDS011;21637;53.352;-6.356;2024-01-27T05:53:55;12.98;;;1.50;;
35530;SDS011;21637;53.352;-6.356;2024-01-27T05:56:21;4.07;;;0.95;;
35530;SDS011;21637;53.352;-6.356;2024-01-27T05:58:47;6.18;;;1.05;;
35530;SDS011;21637;53.352;-6.356;2024-01-27T06:01:13;7.53;;;1.17;;
35530;SDS011;21637;53.352;-6.356;2024-01-27T06:03:42;10.23;;;1.63;;
35530;SDS011;21637;53.352;-6.356;2024-01-27T06:06:08;11.43;;;1.55;;
35530;SDS011;21637;53.352;-6.356;2024-01-27T06:08:34;11.98;;;2.10;;
35530;SDS011;21637;53.352;-6.356;2024-01-27T06:11:00;7.13;;;1.15;;
35530;SDS011;21637;53.352;-6.356;2024-01-27T06:13:26;5.55;;;1.13;;
35530;SDS011;21637;53.352;-6.356;2024-01-27T06:15:52;8.20;;;1.73;;
35530;SDS011;21637;53.352;-6.356;2024-01-27T06:18:18;10.77;;;1.67;;
35530;SDS011;21637;53.352;-6.356;2024-01-27T06:20:44;7.38;;;1.25;;
35530;SDS011;21637;53.352;-6.356;2024-01-27T06:23:09;8.88;;;1.95;;
35530;SDS011;21637;53.352;-6.356;2024-01-27T06:25:35;7.20;;;1.25;;
35530;SDS011;21637;53.352;-6.356;2024-01-27T06:28:01;6.20;;;1.20;;
35530;SDS011;21637;53.352;-6.356;2024-01-27T06:30:27;11.98;;;1.52;;
35530;SDS011;21637;53.352;-6.356;2024-01-27T06:32:52;11.52;;;1.42;;
35530;SDS011;21637;53.352;-6.356;2024-01-27T06:35:18;11.82;;;1.75;;
35530;SDS011;21637;53.352;-6.356;2024-01-27T06:37:44;11.77;;;1.95;;
35530;SDS011;21637;53.352;-6.356;2024-01-27T06:40:09;6.20;;;1.17;;
35530;SDS011;21637;53.352;-6.356;2024-01-27T06:42:36;6.88;;;1.67;;
35530;SDS011;21637;53.352;-6.356;2024-01-27T06:45:02;9.40;;;1.60;;
35530;SDS011;21637;53.352;-6.356;2024-01-27T06:47:29;8.75;;;1.50;;
35530;SDS011;21637;53.352;-6.356;2024-01-27T06:49:54;8.18;;;1.40;;
35530;SDS011;21637;53.352;-6.356;2024-01-27T06:52:20;4.80;;;1.25;;
35530;SDS011;21637;53.352;-6.356;2024-01-27T06:54:46;10.10;;;1.42;;
35530;SDS011;21637;53.352;-6.356;2024-01-27T06:57:21;10.60;;;1.60;;
35530;SDS011;21637;53.352;-6.356;2024-01-27T06:59:48;6.72;;;1.55;;
35530;SDS011;21637;53.352;-6.356;2024-01-27T07:02:18;8.65;;;1.52;;
35530;SDS011;21637;53.352;-6.356;2024-01-27T07:04:47;6.20;;;1.33;;
35530;SDS011;21637;53.352;-6.356;2024-01-27T07:07:13;9.73;;;1.33;;
35530;SDS011;21637;53.352;-6.356;2024-01-27T07:09:39;10.65;;;1.27;;
35530;SDS011;21637;53.352;-6.356;2024-01-27T07:12:04;5.53;;;1.17;;
35530;SDS011;21637;53.352;-6.356;2024-01-27T07:14:30;8.43;;;1.67;;
35530;SDS011;21637;53.352;-6.356;2024-01-27T07:16:56;9.85;;;1.35;;
35530;SDS011;21637;53.352;-6.356;2024-01-27T07:19:22;9.45;;;1.38;;
35530;SDS011;21637;53.352;-6.356;2024-01-27T07:21:47;13.68;;;1.20;;
35530;SDS011;21637;53.352;-6.356;2024-01-27T07:24:13;10.32;;;1.58;;
35530;SDS011;21637;53.352;-6.356;2024-01-27T07:26:39;7.57;;;2.08;;
35530;SDS011;21637;53.352;-6.356;2024-01-27T07:29:05;7.47;;;1.55;;
35530;SDS011;21637;53.352;-6.356;2024-01-27T07:31:31;8.68;;;1.70;;
35530;SDS011;21637;53.352;-6.356;2024-01-27T07:33:56;7.03;;;1.98;;
35530;SDS011;21637;53.352;-6.356;2024-01-27T07:36:22;11.43;;;1.75;;
35530;SDS011;21637;53.352;-6.356;2024-01-27T07:38:48;11.88;;;1.92;;
35530;SDS011;21637;53.352;-6.356;2024-01-27T07:41:13;18.77;;;1.65;;
35530;SDS011;21637;53.352;-6.356;2024-01-27T07:43:39;11.27;;;1.85;;
35530;SDS011;21637;53.352;-6.356;2024-01-27T07:46:05;9.02;;;1.40;;
35530;SDS011;21637;53.352;-6.356;2024-01-27T07:48:31;10.02;;;2.28;;
35530;SDS011;21637;53.352;-6.356;2024-01-27T07:50:57;11.75;;;2.15;;
35530;SDS011;21637;53.352;-6.356;2024-01-27T07:53:23;14.55;;;1.98;;
35530;SDS011;21637;53.352;-6.356;2024-01-27T07:55:48;17.55;;;2.13;;
35530;SDS011;21637;53.352;-6.356;2024-01-27T07:58:16;11.30;;;1.98;;
35530;SDS011;21637;53.352;-6.356;2024-01-27T08:00:41;12.63;;;2.10;;
35530;SDS011;21637;53.352;-6.356;2024-01-27T08:03:07;12.52;;;2.13;;
35530;SDS011;21637;53.352;-6.356;2024-01-27T08:05:33;8.52;;;1.40;;
35530;SDS011;21637;53.352;-6.356;2024-01-27T08:07:58;8.93;;;1.95;;
35530;SDS011;21637;53.352;-6.356;2024-01-27T08:10:24;10.80;;;2.30;;
35530;SDS011;21637;53.352;-6.356;2024-01-27T08:12:50;9.43;;;2.20;;
35530;SDS011;21637;53.352;-6.356;2024-01-27T08:15:16;7.68;;;1.48;;
35530;SDS011;21637;53.352;-6.356;2024-01-27T08:17:42;7.20;;;1.60;;
35530;SDS011;21637;53.352;-6.356;2024-01-27T08:20:07;11.52;;;1.95;;
35530;SDS011;21637;53.352;-6.356;2024-01-27T08:22:33;13.35;;;1.80;;
35530;SDS011;21637;53.352;-6.356;2024-01-27T08:24:59;12.27;;;1.88;;
35530;SDS011;21637;53.352;-6.356;2024-01-27T08:27:25;12.20;;;2.15;;
35530;SDS011;21637;53.352;-6.356;2024-01-27T08:29:51;13.45;;;1.77;;
35530;SDS011;21637;53.352;-6.356;2024-01-27T08:32:16;9.77;;;1.80;;
35530;SDS011;21637;53.352;-6.356;2024-01-27T08:34:44;10.70;;;1.60;;
35530;SDS011;21637;53.352;-6.356;2024-01-27T08:37:18;9.77;;;1.75;;
35530;SDS011;21637;53.352;-6.356;2024-01-27T08:39:44;11.98;;;2.60;;
35530;SDS011;21637;53.352;-6.356;2024-01-27T08:42:10;10.73;;;1.80;;
35530;SDS011;21637;53.352;-6.356;2024-01-27T08:44:39;9.38;;;1.98;;
35530;SDS011;21637;53.352;-6.356;2024-01-27T08:47:05;12.18;;;2.08;;
35530;SDS011;21637;53.352;-6.356;2024-01-27T08:49:31;7.07;;;1.75;;
35530;SDS011;21637;53.352;-6.356;2024-01-27T08:51:57;9.68;;;1.80;;
35530;SDS011;21637;53.352;-6.356;2024-01-27T08:54:22;12.90;;;2.47;;
35530;SDS011;21637;53.352;-6.356;2024-01-27T08:56:48;7.15;;;2.00;;
35530;SDS011;21637;53.352;-6.356;2024-01-27T08:59:14;9.57;;;2.10;;
35530;SDS011;21637;53.352;-6.356;2024-01-27T09:01:40;11.95;;;2.30;;
35530;SDS011;21637;53.352;-6.356;2024-01-27T09:04:07;13.70;;;2.08;;
35530;SDS011;21637;53.352;-6.356;2024-01-27T09:06:33;11.85;;;2.30;;
35530;SDS011;21637;53.352;-6.356;2024-01-27T09:08:58;12.18;;;2.75;;
35530;SDS011;21637;53.352;-6.356;2024-01-27T09:11:24;16.40;;;2.55;;
35530;SDS011;21637;53.352;-6.356;2024-01-27T09:13:52;15.63;;;2.22;;
35530;SDS011;21637;53.352;-6.356;2024-01-27T09:16:18;12.70;;;2.78;;
35530;SDS011;21637;53.352;-6.356;2024-01-27T09:18:44;14.40;;;2.58;;
35530;SDS011;21637;53.352;-6.356;2024-01-27T09:21:10;14.13;;;2.88;;
35530;SDS011;21637;53.352;-6.356;2024-01-27T09:23:37;16.88;;;2.88;;
35530;SDS011;21637;53.352;-6.356;2024-01-27T09:26:02;14.50;;;2.60;;
35530;SDS011;21637;53.352;-6.356;2024-01-27T09:28:29;22.50;;;3.10;;
35530;SDS011;21637;53.352;-6.356;2024-01-27T09:30:54;15.43;;;2.70;;
35530;SDS011;21637;53.352;-6.356;2024-01-27T09:33:20;7.97;;;2.65;;
35530;SDS011;21637;53.352;-6.356;2024-01-27T09:35:48;11.07;;;2.67;;
35530;SDS011;21637;53.352;-6.356;2024-01-27T09:38:14;10.82;;;2.08;;
35530;SDS011;21637;53.352;-6.356;2024-01-27T09:40:40;13.48;;;2.53;;
35530;SDS011;21637;53.352;-6.356;2024-01-27T09:43:06;16.30;;;2.97;;
35530;SDS011;21637;53.352;-6.356;2024-01-27T09:45:37;16.42;;;2.72;;
35530;SDS011;21637;53.352;-6.356;2024-01-27T09:48:04;15.75;;;3.05;;
35530;SDS011;21637;53.352;-6.356;2024-01-27T09:50:33;18.85;;;2.90;;
35530;SDS011;21637;53.352;-6.356;2024-01-27T09:52:59;16.10;;;2.63;;
35530;SDS011;21637;53.352;-6.356;2024-01-27T09:55:25;16.83;;;2.70;;
35530;SDS011;21637;53.352;-6.356;2024-01-27T09:57:51;14.23;;;2.65;;
35530;SDS011;21637;53.352;-6.356;2024-01-27T10:00:18;16.17;;;2.60;;
35530;SDS011;21637;53.352;-6.356;2024-01-27T10:02:45;12.15;;;2.65;;
35530;SDS011;21637;53.352;-6.356;2024-01-27T10:05:14;21.38;;;4.07;;
35530;SDS011;21637;53.352;-6.356;2024-01-27T10:07:41;17.35;;;2.78;;
35530;SDS011;21637;53.352;-6.356;2024-01-27T10:10:07;15.35;;;3.08;;
35530;SDS011;21637;53.352;-6.356;2024-01-27T10:12:34;16.85;;;3.22;;
35530;SDS011;21637;53.352;-6.356;2024-01-27T10:15:05;13.73;;;3.10;;
35530;SDS011;21637;53.352;-6.356;2024-01-27T10:17:31;18.30;;;2.72;;
35530;SDS011;21637;53.352;-6.356;2024-01-27T10:20:02;22.60;;;3.10;;
35530;SDS011;21637;53.352;-6.356;2024-01-27T10:22:36;17.70;;;3.20;;
35530;SDS011;21637;53.352;-6.356;2024-01-27T10:25:03;19.55;;;3.17;;
35530;SDS011;21637;53.352;-6.356;2024-01-27T10:27:29;17.48;;;2.85;;
35530;SDS011;21637;53.352;-6.356;2024-01-27T10:29:55;16.65;;;3.45;;
35530;SDS011;21637;53.352;-6.356;2024-01-27T10:32:21;11.80;;;2.42;;
35530;SDS011;21637;53.352;-6.356;2024-01-27T10:34:50;16.85;;;3.47;;
35530;SDS011;21637;53.352;-6.356;2024-01-27T10:37:29;16.48;;;2.88;;
35530;SDS011;21637;53.352;-6.356;2024-01-27T10:42:33;17.33;;;3.13;;
35530;SDS011;21637;53.352;-6.356;2024-01-27T10:45:03;17.63;;;2.58;;
35530;SDS011;21637;53.352;-6.356;2024-01-27T10:47:31;13.82;;;2.30;;
35530;SDS011;21637;53.352;-6.356;2024-01-27T10:49:58;17.85;;;3.25;;
35530;SDS011;21637;53.352;-6.356;2024-01-27T10:52:25;17.33;;;2.97;;
35530;SDS011;21637;53.352;-6.356;2024-01-27T10:55:00;19.08;;;3.15;;
35530;SDS011;21637;53.352;-6.356;2024-01-27T10:57:31;14.02;;;2.97;;
35530;SDS011;21637;53.352;-6.356;2024-01-27T11:00:00;17.63;;;3.30;;
35530;SDS011;21637;53.352;-6.356;2024-01-27T11:02:31;17.63;;;3.20;;
35530;SDS011;21637;53.352;-6.356;2024-01-27T11:04:58;18.67;;;3.13;;
35530;SDS011;21637;53.352;-6.356;2024-01-27T11:07:29;16.58;;;2.63;;
35530;SDS011;21637;53.352;-6.356;2024-01-27T11:09:57;17.73;;;3.90;;
35530;SDS011;21637;53.352;-6.356;2024-01-27T11:12:23;15.63;;;2.75;;
35530;SDS011;21637;53.352;-6.356;2024-01-27T11:14:49;10.35;;;2.45;;
35530;SDS011;21637;53.352;-6.356;2024-01-27T11:17:16;14.75;;;2.83;;
35530;SDS011;21637;53.352;-6.356;2024-01-27T11:19:46;13.32;;;2.88;;
35530;SDS011;21637;53.352;-6.356;2024-01-27T11:22:25;17.50;;;2.75;;
35530;SDS011;21637;53.352;-6.356;2024-01-27T11:25:04;15.90;;;2.80;;
35530;SDS011;21637;53.352;-6.356;2024-01-27T11:27:50;18.63;;;3.10;;
35530;SDS011;21637;53.352;-6.356;2024-01-27T11:30:29;21.13;;;4.13;;
35530;SDS011;21637;53.352;-6.356;2024-01-27T11:33:00;19.98;;;3.67;;
35530;SDS011;21637;53.352;-6.356;2024-01-27T11:35:28;15.98;;;2.75;;
35530;SDS011;21637;53.352;-6.356;2024-01-27T11:37:54;17.92;;;3.38;;
35530;SDS011;21637;53.352;-6.356;2024-01-27T11:40:19;18.48;;;3.10;;
35530;SDS011;21637;53.352;-6.356;2024-01-27T11:42:58;18.88;;;3.75;;
35530;SDS011;21637;53.352;-6.356;2024-01-27T11:45:25;18.02;;;3.30;;
35530;SDS011;21637;53.352;-6.356;2024-01-27T11:47:54;19.45;;;3.42;;
35530;SDS011;21637;53.352;-6.356;2024-01-27T11:50:21;14.68;;;2.78;;
35530;SDS011;21637;53.352;-6.356;2024-01-27T11:52:47;18.65;;;2.97;;
35530;SDS011;21637;53.352;-6.356;2024-01-27T11:55:13;20.67;;;3.75;;
35530;SDS011;21637;53.352;-6.356;2024-01-27T11:57:40;23.63;;;4.15;;
35530;SDS011;21637;53.352;-6.356;2024-01-27T12:00:07;17.15;;;3.35;;
35530;SDS011;21637;53.352;-6.356;2024-01-27T12:02:34;21.23;;;4.20;;
35530;SDS011;21637;53.352;-6.356;2024-01-27T12:05:00;23.08;;;3.33;;
35530;SDS011;21637;53.352;-6.356;2024-01-27T12:07:28;14.32;;;3.40;;
35530;SDS011;21637;53.352;-6.356;2024-01-27T12:09:54;24.50;;;3.75;;
35530;SDS011;21637;53.352;-6.356;2024-01-27T12:12:19;26.20;;;7.28;;
35530;SDS011;21637;53.352;-6.356;2024-01-27T12:14:46;19.30;;;4.55;;
35530;SDS011;21637;53.352;-6.356;2024-01-27T12:17:13;20.30;;;3.75;;
35530;SDS011;21637;53.352;-6.356;2024-01-27T12:19:45;20.00;;;3.70;;
35530;SDS011;21637;53.352;-6.356;2024-01-27T12:22:46;14.95;;;3.15;;
35530;SDS011;21637;53.352;-6.356;2024-01-27T12:25:08;18.48;;;3.72;;
35530;SDS011;21637;53.352;-6.356;2024-01-27T12:27:35;15.07;;;3.47;;
35530;SDS011;21637;53.352;-6.356;2024-01-27T12:30:01;19.77;;;3.35;;
35530;SDS011;21637;53.352;-6.356;2024-01-27T12:32:27;14.68;;;2.92;;
35530;SDS011;21637;53.352;-6.356;2024-01-27T12:34:53;19.38;;;2.88;;
35530;SDS011;21637;53.352;-6.356;2024-01-27T12:37:21;19.17;;;2.85;;
35530;SDS011;21637;53.352;-6.356;2024-01-27T12:39:47;16.27;;;3.00;;
35530;SDS011;21637;53.352;-6.356;2024-01-27T12:42:16;24.70;;;3.78;;
35530;SDS011;21637;53.352;-6.356;2024-01-27T12:44:42;15.68;;;3.10;;
35530;SDS011;21637;53.352;-6.356;2024-01-27T12:47:11;14.93;;;2.45;;
35530;SDS011;21637;53.352;-6.356;2024-01-27T12:49:38;21.00;;;2.90;;
35530;SDS011;21637;53.352;-6.356;2024-01-27T12:52:04;9.77;;;2.60;;
35530;SDS011;21637;53.352;-6.356;2024-01-27T12:54:31;16.70;;;3.53;;
35530;SDS011;21637;53.352;-6.356;2024-01-27T12:56:59;14.05;;;2.85;;
35530;SDS011;21637;53.352;-6.356;2024-01-27T12:59:26;17.52;;;3.40;;
35530;SDS011;21637;53.352;-6.356;2024-01-27T13:01:53;17.80;;;2.92;;
35530;SDS011;21637;53.352;-6.356;2024-01-27T13:04:19;17.65;;;3.17;;
35530;SDS011;21637;53.352;-6.356;2024-01-27T13:06:45;13.05;;;2.65;;
35530;SDS011;21637;53.352;-6.356;2024-01-27T13:09:10;16.02;;;3.28;;
35530;SDS011;21637;53.352;-6.356;2024-01-27T13:11:37;17.83;;;3.90;;
35530;SDS011;21637;53.352;-6.356;2024-01-27T13:14:03;15.45;;;3.95;;
35530;SDS011;21637;53.352;-6.356;2024-01-27T13:16:30;20.83;;;3.45;;
35530;SDS011;21637;53.352;-6.356;2024-01-27T13:18:56;16.85;;;3.80;;
35530;SDS011;21637;53.352;-6.356;2024-01-27T13:21:22;24.02;;;3.92;;
35530;SDS011;21637;53.352;-6.356;2024-01-27T13:23:48;24.83;;;4.25;;
35530;SDS011;21637;53.352;-6.356;2024-01-27T13:26:17;18.92;;;3.60;;
35530;SDS011;21637;53.352;-6.356;2024-01-27T13:28:43;21.40;;;3.60;;
35530;SDS011;21637;53.352;-6.356;2024-01-27T13:31:08;21.98;;;3.03;;
35530;SDS011;21637;53.352;-6.356;2024-01-27T13:33:34;20.77;;;3.97;;
35530;SDS011;21637;53.352;-6.356;2024-01-27T13:36:00;18.17;;;4.00;;
35530;SDS011;21637;53.352;-6.356;2024-01-27T13:38:26;16.52;;;3.13;;
35530;SDS011;21637;53.352;-6.356;2024-01-27T13:40:52;19.02;;;2.95;;
35530;SDS011;21637;53.352;-6.356;2024-01-27T13:43:18;17.45;;;3.72;;
35530;SDS011;21637;53.352;-6.356;2024-01-27T13:45:44;19.20;;;3.35;;
35530;SDS011;21637;53.352;-6.356;2024-01-27T13:48:12;26.00;;;3.70;;
35530;SDS011;21637;53.352;-6.356;2024-01-27T13:50:37;18.65;;;3.78;;
35530;SDS011;21637;53.352;-6.356;2024-01-27T13:53:03;21.02;;;3.45;;
35530;SDS011;21637;53.352;-6.356;2024-01-27T13:55:30;19.58;;;3.70;;
35530;SDS011;21637;53.352;-6.356;2024-01-27T13:57:56;22.13;;;3.33;;
35530;SDS011;21637;53.352;-6.356;2024-01-27T14:00:22;19.73;;;2.95;;
35530;SDS011;21637;53.352;-6.356;2024-01-27T14:02:48;20.27;;;4.10;;
35530;SDS011;21637;53.352;-6.356;2024-01-27T14:05:13;18.67;;;3.70;;
35530;SDS011;21637;53.352;-6.356;2024-01-27T14:07:39;18.30;;;4.35;;
35530;SDS011;21637;53.352;-6.356;2024-01-27T14:10:05;22.80;;;3.35;;
35530;SDS011;21637;53.352;-6.356;2024-01-27T14:12:31;16.35;;;3.60;;
35530;SDS011;21637;53.352;-6.356;2024-01-27T14:15:06;17.30;;;3.85;;
35530;SDS011;21637;53.352;-6.356;2024-01-27T14:17:35;19.10;;;3.30;;
35530;SDS011;21637;53.352;-6.356;2024-01-27T14:20:01;16.95;;;3.72;;
35530;SDS011;21637;53.352;-6.356;2024-01-27T14:22:28;21.20;;;3.67;;
35530;SDS011;21637;53.352;-6.356;2024-01-27T14:24:54;22.80;;;3.70;;